Circle Line Brooklyn — WDE8160 — position and weather

sailwx.info

Track history (hours):
 
Tides and Currents Weather Stations Pressure Air Temp Water Temp Dewpoint Dewpoint Depression Visibility Wind Speed Wind Dir Waves Ship Positions

Circle Line Brooklyn

Owner: Circle Line Sight Seeing Yachts Inc., New York, NY. More information available from US FCC via Universal Licensing System and Coast Guard Vessel Documentation Center.

Last reported at 2015-Mar-06 19:33 UTC. Time now 2015-Mar-06 20:03 UTC.
Position N 40°46' W 074°00'.

MMSI: 367402250.

Date/timePositionNaut miles runAvg speedWind from/ knotsBaromVisibWave heightAir tempDewpointWater temp
2015-Mar-06 19:33N 40°46' W 074°00'1 0.8
2015-Mar-06 18:33N 40°45' W 074°01'4 3.9
2015-Mar-06 17:33N 40°41' W 074°02'5 4.7
2015-Mar-06 16:34N 40°46' W 074°00'5 5.0
2015-Mar-06 15:33N 40°41' W 074°03'5 5.0
2015-Mar-06 14:33N 40°46' W 074°00'0 0.0
2015-Mar-06 13:33N 40°46' W 074°00'0 0.0
2015-Mar-05 22:22N 40°46' W 074°00'1 1.6
2015-Mar-05 21:33N 40°45' W 074°01'3 2.9
2015-Mar-05 20:32N 40°46' W 073°57'2 2.2
2015-Mar-05 19:33N 40°46' W 074°00'0 0.0
2015-Mar-05 18:29N 40°46' W 074°00'5 5.4
2015-Mar-05 17:33N 40°41' W 074°02'5 3.3
2015-Mar-05 16:04N 40°46' W 074°00'5 9.6
2015-Mar-05 15:33N 40°41' W 074°02'5 4.7
2015-Mar-05 14:32N 40°46' W 074°00'0 0.0
2015-Mar-05 13:29N 40°46' W 074°00'0 0.0
2015-Mar-05 12:32N 40°46' W 074°00'0 0.0
2015-Mar-04 22:15N 40°46' W 074°00'1 2.0
2015-Mar-04 21:33N 40°45' W 074°01'3 2.6
2015-Mar-04 20:33N 40°45' W 073°58'2 2.0
2015-Mar-04 19:33N 40°46' W 074°00'0 0.1
2015-Mar-04 18:33N 40°46' W 074°00'5 4.9
2015-Mar-04 17:33N 40°41' W 074°03'5 4.5
2015-Mar-04 16:28N 40°46' W 074°00'5 5.3
2015-Mar-04 15:33N 40°41' W 074°02'5 4.6
2015-Mar-04 14:31N 40°46' W 074°00'0 0.0
2015-Mar-04 13:28N 40°46' W 074°00'1 0.1
2015-Mar-03 21:34N 40°45' W 074°01'3 2.6
2015-Mar-03 20:31N 40°45' W 073°58'2 2.1
2015-Mar-03 19:33N 40°46' W 074°00'0 0.0
2015-Mar-03 18:33N 40°46' W 074°00'5 4.7
2015-Mar-03 17:34N 40°41' W 074°02'5 4.6
2015-Mar-03 16:33N 40°46' W 074°00'5 4.8
2015-Mar-03 15:33N 40°41' W 074°02'5 4.7
2015-Mar-03 14:32N 40°46' W 074°00'0 0.0
2015-Mar-03 13:34N 40°46' W 074°00'0 0.0
2015-Mar-03 12:33N 40°46' W 074°00'2 0.1
2015-Mar-02 21:33N 40°44' W 074°01'3 2.9
2015-Mar-02 20:32N 40°45' W 073°58'2 2.1
2015-Mar-02 19:33N 40°46' W 074°00'0 0.2
2015-Mar-02 18:33N 40°46' W 074°00'5 5.0
2015-Mar-02 17:33N 40°41' W 074°03'5 4.7
2015-Mar-02 16:29N 40°46' W 074°00'5 5.1
2015-Mar-02 15:34N 40°41' W 074°02'5 4.7
2015-Mar-02 14:33N 40°46' W 074°00'0 0.0
2015-Mar-02 01:33N 40°46' W 074°00'5 4.6
2015-Mar-02 00:33N 40°42' W 074°02'5 1.1
2015-Mar-01 20:34N 40°46' W 074°00'0 0.2
2015-Mar-01 19:34N 40°46' W 074°00'1 1.4
2015-Mar-01 18:34N 40°45' W 074°01'4 3.5
2015-Mar-01 17:33N 40°41' W 074°02'5 4.9
2015-Mar-01 16:33N 40°46' W 074°00'5 4.7
2015-Mar-01 15:33N 40°41' W 074°02'5 4.7
2015-Mar-01 14:33N 40°46' W 074°00'1 0.1
2015-Mar-01 01:33N 40°45' W 074°01'3 2.8
2015-Mar-01 00:33N 40°42' W 074°02'4 4.0
2015-Feb-28 23:33N 40°46' W 074°00'0 0.0
2015-Feb-28 22:33N 40°46' W 074°00'1 1.2
2015-Feb-28 21:30N 40°47' W 073°60'6 6.3
2015-Feb-28 20:33N 40°41' W 074°02'5 4.8
2015-Feb-28 19:33N 40°46' W 074°00'0 0.0
2015-Feb-28 18:33N 40°46' W 074°00'4 4.0
2015-Feb-28 17:33N 40°42' W 074°02'4 4.1
2015-Feb-28 16:33N 40°46' W 074°00'3 3.2
2015-Feb-28 15:33N 40°43' W 074°02'3 3.2
2015-Feb-28 14:33N 40°46' W 074°00'0 0.0
2015-Feb-28 13:33N 40°46' W 074°00'0 0.0
2015-Feb-28 12:33N 40°46' W 074°00'0 0.0
2015-Feb-28 01:29N 40°46' W 074°00'5 5.2
2015-Feb-28 00:33N 40°41' W 074°02'5 4.8
2015-Feb-27 23:33N 40°46' W 074°00'0 0.0
2015-Feb-27 22:30N 40°46' W 074°00'0 0.4
2015-Feb-27 21:34N 40°46' W 074°00'3 2.7
2015-Feb-27 20:33N 40°44' W 073°58'2 2.4
2015-Feb-27 19:33N 40°46' W 074°00'0 0.0
2015-Feb-27 18:33N 40°46' W 074°00'5 5.0
2015-Feb-27 17:33N 40°41' W 074°03'5 4.6
2015-Feb-27 16:28N 40°46' W 074°00'5 5.6
2015-Feb-27 15:33N 40°41' W 074°03'5 4.7
2015-Feb-27 14:29N 40°46' W 074°00'0 0.0
2015-Feb-27 13:32N 40°46' W 074°00'0 0.0
2015-Feb-27 12:32N 40°46' W 074°00'0 0.0
2015-Feb-26 22:33N 40°46' W 074°00'2 1.8
2015-Feb-26 21:31N 40°44' W 074°01'2 2.6
2015-Feb-26 20:33N 40°43' W 073°58'3 3.5
2015-Feb-26 19:33N 40°46' W 074°00'0 0.0
2015-Feb-26 18:26N 40°46' W 074°00'4 4.6
2015-Feb-26 17:32N 40°42' W 074°02'4 3.7
2015-Feb-26 16:25N 40°46' W 074°00'4 4.2
2015-Feb-26 15:32N 40°42' W 074°02'4 3.2
2015-Feb-26 14:23N 40°46' W 074°00'0 0.0
2015-Feb-26 13:17N 40°46' W 074°00'1 0.1
2015-Feb-25 21:33N 40°44' W 074°01'2 2.3
2015-Feb-25 20:32N 40°44' W 073°58'3 2.7
2015-Feb-25 19:33N 40°46' W 074°00'0 0.3
2015-Feb-25 18:25N 40°46' W 074°01'4 4.9
2015-Feb-25 17:33N 40°42' W 074°02'0 0.1
2015-Feb-25 15:32N 40°41' W 074°02'5 1.5
2015-Feb-25 12:23N 40°46' W 074°00'0 0.0
2015-Feb-24 22:20N 40°46' W 074°00'0 0.3
2015-Feb-24 21:33N 40°46' W 074°00'3 3.4
2015-Feb-24 20:33N 40°42' W 073°59'  
Track history (hours):
 
Tides and Currents Weather Stations Pressure Air Temp Water Temp Dewpoint Dewpoint Depression Visibility Wind Speed Wind Dir Waves Ship Positions

Circle Line Brooklyn

Owner: Circle Line Sight Seeing Yachts Inc., New York, NY. More information available from US FCC via Universal Licensing System and Coast Guard Vessel Documentation Center.

Last reported at 2015-Mar-06 19:33 UTC. Time now 2015-Mar-06 20:03 UTC.
Position N 40°46' W 074°00'.

MMSI: 367402250.

Date/timePositionNaut miles runAvg speedWind from/ knotsBaromVisibWave heightAir tempDewpointWater temp
2015-Mar-06 19:33N 40°46' W 074°00'1 0.8
2015-Mar-06 18:33N 40°45' W 074°01'4 3.9
2015-Mar-06 17:33N 40°41' W 074°02'5 4.7
2015-Mar-06 16:34N 40°46' W 074°00'5 5.0
2015-Mar-06 15:33N 40°41' W 074°03'5 5.0
2015-Mar-06 14:33N 40°46' W 074°00'0 0.0
2015-Mar-06 13:33N 40°46' W 074°00'0 0.0
2015-Mar-05 22:22N 40°46' W 074°00'1 1.6
2015-Mar-05 21:33N 40°45' W 074°01'3 2.9
2015-Mar-05 20:32N 40°46' W 073°57'2 2.2
2015-Mar-05 19:33N 40°46' W 074°00'0 0.0
2015-Mar-05 18:29N 40°46' W 074°00'5 5.4
2015-Mar-05 17:33N 40°41' W 074°02'5 3.3
2015-Mar-05 16:04N 40°46' W 074°00'5 9.6
2015-Mar-05 15:33N 40°41' W 074°02'5 4.7
2015-Mar-05 14:32N 40°46' W 074°00'0 0.0
2015-Mar-05 13:29N 40°46' W 074°00'0 0.0
2015-Mar-05 12:32N 40°46' W 074°00'0 0.0
2015-Mar-04 22:15N 40°46' W 074°00'1 2.0
2015-Mar-04 21:33N 40°45' W 074°01'3 2.6
2015-Mar-04 20:33N 40°45' W 073°58'2 2.0
2015-Mar-04 19:33N 40°46' W 074°00'0 0.1
2015-Mar-04 18:33N 40°46' W 074°00'5 4.9
2015-Mar-04 17:33N 40°41' W 074°03'5 4.5
2015-Mar-04 16:28N 40°46' W 074°00'5 5.3
2015-Mar-04 15:33N 40°41' W 074°02'5 4.6
2015-Mar-04 14:31N 40°46' W 074°00'0 0.0
2015-Mar-04 13:28N 40°46' W 074°00'1 0.1
2015-Mar-03 21:34N 40°45' W 074°01'3 2.6
2015-Mar-03 20:31N 40°45' W 073°58'2 2.1
2015-Mar-03 19:33N 40°46' W 074°00'0 0.0
2015-Mar-03 18:33N 40°46' W 074°00'5 4.7
2015-Mar-03 17:34N 40°41' W 074°02'5 4.6
2015-Mar-03 16:33N 40°46' W 074°00'5 4.8
2015-Mar-03 15:33N 40°41' W 074°02'5 4.7
2015-Mar-03 14:32N 40°46' W 074°00'0 0.0
2015-Mar-03 13:34N 40°46' W 074°00'0 0.0
2015-Mar-03 12:33N 40°46' W 074°00'2 0.1
2015-Mar-02 21:33N 40°44' W 074°01'3 2.9
2015-Mar-02 20:32N 40°45' W 073°58'2 2.1
2015-Mar-02 19:33N 40°46' W 074°00'0 0.2
2015-Mar-02 18:33N 40°46' W 074°00'5 5.0
2015-Mar-02 17:33N 40°41' W 074°03'5 4.7
2015-Mar-02 16:29N 40°46' W 074°00'5 5.1
2015-Mar-02 15:34N 40°41' W 074°02'5 4.7
2015-Mar-02 14:33N 40°46' W 074°00'0 0.0
2015-Mar-02 01:33N 40°46' W 074°00'5 4.6
2015-Mar-02 00:33N 40°42' W 074°02'5 1.1
2015-Mar-01 20:34N 40°46' W 074°00'0 0.2
2015-Mar-01 19:34N 40°46' W 074°00'1 1.4
2015-Mar-01 18:34N 40°45' W 074°01'4 3.5
2015-Mar-01 17:33N 40°41' W 074°02'5 4.9
2015-Mar-01 16:33N 40°46' W 074°00'5 4.7
2015-Mar-01 15:33N 40°41' W 074°02'5 4.7
2015-Mar-01 14:33N 40°46' W 074°00'1 0.1
2015-Mar-01 01:33N 40°45' W 074°01'3 2.8
2015-Mar-01 00:33N 40°42' W 074°02'4 4.0
2015-Feb-28 23:33N 40°46' W 074°00'0 0.0
2015-Feb-28 22:33N 40°46' W 074°00'1 1.2
2015-Feb-28 21:30N 40°47' W 073°60'6 6.3
2015-Feb-28 20:33N 40°41' W 074°02'5 4.8
2015-Feb-28 19:33N 40°46' W 074°00'0 0.0
2015-Feb-28 18:33N 40°46' W 074°00'4 4.0
2015-Feb-28 17:33N 40°42' W 074°02'4 4.1
2015-Feb-28 16:33N 40°46' W 074°00'3 3.2
2015-Feb-28 15:33N 40°43' W 074°02'3 3.2
2015-Feb-28 14:33N 40°46' W 074°00'0 0.0
2015-Feb-28 13:33N 40°46' W 074°00'0 0.0
2015-Feb-28 12:33N 40°46' W 074°00'0 0.0
2015-Feb-28 01:29N 40°46' W 074°00'5 5.2
2015-Feb-28 00:33N 40°41' W 074°02'5 4.8
2015-Feb-27 23:33N 40°46' W 074°00'0 0.0
2015-Feb-27 22:30N 40°46' W 074°00'0 0.4
2015-Feb-27 21:34N 40°46' W 074°00'3 2.7
2015-Feb-27 20:33N 40°44' W 073°58'2 2.4
2015-Feb-27 19:33N 40°46' W 074°00'0 0.0
2015-Feb-27 18:33N 40°46' W 074°00'5 5.0
2015-Feb-27 17:33N 40°41' W 074°03'5 4.6
2015-Feb-27 16:28N 40°46' W 074°00'5 5.6
2015-Feb-27 15:33N 40°41' W 074°03'5 4.7
2015-Feb-27 14:29N 40°46' W 074°00'0 0.0
2015-Feb-27 13:32N 40°46' W 074°00'0 0.0
2015-Feb-27 12:32N 40°46' W 074°00'0 0.0
2015-Feb-26 22:33N 40°46' W 074°00'2 1.8
2015-Feb-26 21:31N 40°44' W 074°01'2 2.6
2015-Feb-26 20:33N 40°43' W 073°58'3 3.5
2015-Feb-26 19:33N 40°46' W 074°00'0 0.0
2015-Feb-26 18:26N 40°46' W 074°00'4 4.6
2015-Feb-26 17:32N 40°42' W 074°02'4 3.7
2015-Feb-26 16:25N 40°46' W 074°00'4 4.2
2015-Feb-26 15:32N 40°42' W 074°02'4 3.2
2015-Feb-26 14:23N 40°46' W 074°00'0 0.0
2015-Feb-26 13:17N 40°46' W 074°00'1 0.1
2015-Feb-25 21:33N 40°44' W 074°01'2 2.3
2015-Feb-25 20:32N 40°44' W 073°58'3 2.7
2015-Feb-25 19:33N 40°46' W 074°00'0 0.3
2015-Feb-25 18:25N 40°46' W 074°01'4 4.9
2015-Feb-25 17:33N 40°42' W 074°02'0 0.1
2015-Feb-25 15:32N 40°41' W 074°02'5 1.5
2015-Feb-25 12:23N 40°46' W 074°00'0 0.0
2015-Feb-24 22:20N 40°46' W 074°00'0 0.3
2015-Feb-24 21:33N 40°46' W 074°00'3 3.4
2015-Feb-24 20:33N 40°42' W 073°59'  

Dump ship's entire track history